createdAt,value
2018-10-16T00:01:10.911Z,59.30
2018-10-16T00:03:41.565Z,59.29
2018-10-16T00:06:12.213Z,59.47
2018-10-16T00:08:42.849Z,59.68
2018-10-16T00:11:13.558Z,59.86
2018-10-16T00:13:44.215Z,59.66
2018-10-16T00:16:14.965Z,59.61
2018-10-16T00:18:45.603Z,59.73
2018-10-16T00:21:16.316Z,59.77
2018-10-16T00:23:46.979Z,59.90
2018-10-16T00:26:17.675Z,59.56
2018-10-16T00:28:48.310Z,58.99
2018-10-16T00:31:18.991Z,59.28
2018-10-16T00:33:49.617Z,59.93
2018-10-16T00:36:20.333Z,59.96
2018-10-16T00:38:50.961Z,60.17
2018-10-16T00:41:21.658Z,59.94
2018-10-16T00:43:52.300Z,60.17
2018-10-16T00:46:22.979Z,60.17
2018-10-16T00:48:53.610Z,60.36
2018-10-16T00:51:24.239Z,60.31
2018-10-16T00:53:54.846Z,60.02
2018-10-16T00:56:25.513Z,60.09
2018-10-16T00:58:56.212Z,60.23
2018-10-16T01:01:31.570Z,60.23
2018-10-16T01:04:04.372Z,59.72
2018-10-16T01:06:35.733Z,60.34
2018-10-16T01:09:40.375Z,60.18
2018-10-16T01:12:11.035Z,60.41
2018-10-16T01:14:41.636Z,60.32
2018-10-16T01:17:12.255Z,60.20
2018-10-16T01:19:42.892Z,60.33
2018-10-16T01:22:13.572Z,60.59
2018-10-16T01:24:44.246Z,60.64
2018-10-16T01:27:14.930Z,60.58
2018-10-16T01:29:45.590Z,60.69
2018-10-16T01:32:16.295Z,60.68
2018-10-16T01:34:46.998Z,60.93
2018-10-16T01:37:17.696Z,61.19
2018-10-16T01:39:48.315Z,61.00
2018-10-16T01:42:18.971Z,61.14
2018-10-16T01:44:49.610Z,60.89
2018-10-16T01:47:20.266Z,60.67
2018-10-16T01:49:51.130Z,61.25
2018-10-16T01:52:21.772Z,61.19
2018-10-16T01:54:52.420Z,60.95
2018-10-16T01:57:23.009Z,60.94
2018-10-16T01:59:53.749Z,60.82
2018-10-16T02:02:24.447Z,61.11
2018-10-16T02:04:55.060Z,60.88
2018-10-16T02:07:25.652Z,60.80
2018-10-16T02:09:56.304Z,60.96
2018-10-16T02:12:26.952Z,61.10
2018-10-16T02:14:57.664Z,61.15
2018-10-16T02:17:28.244Z,60.95
2018-10-16T02:19:58.934Z,61.03
2018-10-16T02:22:29.627Z,61.09
2018-10-16T02:25:00.251Z,61.17
2018-10-16T02:27:30.905Z,60.97
2018-10-16T02:30:01.612Z,60.73
2018-10-16T02:32:32.220Z,60.69
2018-10-16T02:35:02.890Z,61.15
2018-10-16T02:37:33.489Z,60.94
2018-10-16T02:40:04.320Z,60.69
2018-10-16T02:42:34.915Z,61.01
2018-10-16T02:45:06.621Z,60.81
2018-10-16T02:47:37.311Z,60.93
2018-10-16T02:50:08.689Z,60.96
2018-10-16T02:52:39.579Z,60.79
2018-10-16T02:55:11.182Z,60.78
2018-10-16T02:57:41.766Z,60.91
2018-10-16T03:00:12.453Z,61.02
2018-10-16T03:02:43.128Z,60.87
2018-10-16T03:05:13.739Z,60.64
2018-10-16T03:07:44.410Z,60.37
2018-10-16T03:10:15.159Z,60.42
2018-10-16T03:12:45.788Z,60.29
2018-10-16T03:15:16.496Z,60.18
2018-10-16T03:17:47.127Z,60.10
2018-10-16T03:20:17.776Z,60.21
2018-10-16T03:22:48.472Z,59.97
2018-10-16T03:25:19.135Z,60.48
2018-10-16T03:27:49.823Z,60.21
2018-10-16T03:30:20.570Z,60.29
2018-10-16T03:32:51.221Z,60.03
2018-10-16T03:35:21.878Z,60.41
2018-10-16T03:37:52.515Z,60.54
2018-10-16T03:40:23.226Z,60.40
2018-10-16T03:42:53.832Z,60.37
2018-10-16T03:45:24.480Z,60.06
2018-10-16T03:47:55.165Z,60.40
2018-10-16T03:50:25.808Z,60.37
2018-10-16T03:52:56.476Z,60.34
2018-10-16T03:55:27.151Z,60.19
2018-10-16T03:57:57.755Z,59.97
2018-10-16T04:00:28.387Z,60.14
2018-10-16T04:02:59.007Z,60.08
2018-10-16T04:05:29.640Z,60.09
2018-10-16T04:08:00.291Z,60.39
2018-10-16T04:10:30.903Z,60.50
2018-10-16T04:13:01.925Z,60.90
2018-10-16T04:15:32.556Z,60.48
2018-10-16T04:18:03.260Z,60.60
2018-10-16T04:20:33.991Z,61.00
2018-10-16T04:23:04.777Z,60.87
2018-10-16T04:25:35.408Z,61.25
2018-10-16T04:28:06.548Z,61.34
2018-10-16T04:30:37.248Z,61.31
2018-10-16T04:33:07.885Z,61.23
2018-10-16T04:35:38.506Z,60.85
2018-10-16T04:38:09.137Z,60.73
2018-10-16T04:40:39.760Z,59.21
2018-10-16T04:43:10.392Z,59.35
2018-10-16T04:45:41.031Z,59.63
2018-10-16T04:48:11.663Z,59.30
2018-10-16T04:53:43.470Z,59.28
2018-10-16T04:56:14.129Z,60.17
2018-10-16T04:58:44.756Z,60.57
2018-10-16T05:01:15.470Z,60.80
2018-10-16T05:03:46.073Z,60.57
2018-10-16T05:06:16.775Z,60.70
2018-10-16T05:08:47.409Z,60.30
2018-10-16T05:11:18.043Z,60.43
2018-10-16T05:13:48.727Z,60.13
2018-10-16T05:16:20.104Z,60.10
2018-10-16T05:18:50.774Z,60.34
2018-10-16T05:21:21.431Z,60.66
2018-10-16T05:23:52.122Z,60.62
2018-10-16T05:26:22.760Z,60.51
2018-10-16T05:28:53.411Z,60.36
2018-10-16T05:31:24.253Z,60.79
2018-10-16T05:33:55.001Z,60.77
2018-10-16T05:36:25.751Z,60.65
2018-10-16T05:38:56.485Z,60.61
2018-10-16T05:41:27.202Z,60.19
2018-10-16T05:43:57.847Z,60.02
2018-10-16T05:46:28.509Z,60.94
2018-10-16T05:48:59.150Z,60.62
2018-10-16T05:51:29.806Z,60.63
2018-10-16T05:54:00.443Z,60.56
2018-10-16T05:56:31.128Z,60.27
2018-10-16T06:00:04.791Z,60.51
2018-10-16T06:02:35.441Z,60.90
2018-10-16T06:07:51.316Z,61.19
2018-10-16T06:10:21.952Z,61.10
2018-10-16T06:12:52.610Z,61.26
2018-10-16T06:15:23.243Z,61.21
2018-10-16T06:17:53.915Z,61.34
2018-10-16T06:20:24.547Z,61.33
2018-10-16T06:22:55.198Z,61.32
2018-10-16T06:25:25.815Z,61.37
2018-10-16T06:27:56.468Z,61.27
2018-10-16T06:30:27.191Z,61.32
2018-10-16T06:32:57.790Z,61.62
2018-10-16T06:35:28.432Z,61.27
2018-10-16T06:37:59.085Z,61.34
2018-10-16T06:40:29.733Z,60.98
2018-10-16T06:43:00.467Z,61.39
2018-10-16T06:45:31.126Z,61.21
2018-10-16T06:48:01.997Z,60.82
2018-10-16T06:50:32.535Z,60.70
2018-10-16T06:53:03.222Z,60.91
2018-10-16T06:55:33.851Z,60.89
2018-10-16T06:58:35.695Z,60.19
2018-10-16T07:01:06.879Z,60.13
2018-10-16T07:03:37.531Z,59.59
2018-10-16T07:06:08.186Z,58.93
2018-10-16T07:08:38.831Z,58.42
2018-10-16T07:11:09.527Z,57.52
2018-10-16T07:13:40.199Z,55.75
2018-10-16T07:16:10.835Z,53.39
2018-10-16T07:18:41.455Z,51.33
2018-10-16T07:21:12.102Z,49.96
2018-10-16T07:23:42.693Z,49.81
2018-10-16T07:26:13.440Z,47.12
2018-10-16T07:28:44.102Z,43.48
2018-10-16T07:31:14.765Z,40.83
2018-10-16T07:33:46.251Z,37.82
2018-10-16T07:36:16.956Z,36.21
2018-10-16T07:38:47.635Z,34.35
2018-10-16T07:41:18.256Z,33.66
2018-10-16T07:43:48.916Z,32.82
2018-10-16T07:46:19.585Z,33.52
2018-10-16T07:48:50.192Z,33.97
2018-10-16T07:51:21.421Z,35.12
2018-10-16T07:53:52.153Z,35.47
2018-10-16T07:56:22.784Z,35.29
2018-10-16T07:58:53.479Z,35.05
2018-10-16T08:01:24.214Z,34.98
2018-10-16T08:03:55.033Z,34.98
2018-10-16T08:06:25.726Z,34.53
2018-10-16T08:08:56.547Z,34.38
2018-10-16T08:11:27.345Z,34.35
2018-10-16T08:13:57.911Z,34.10
2018-10-16T08:16:28.885Z,33.60
2018-10-16T08:18:59.604Z,33.16
2018-10-16T08:21:30.270Z,33.66
2018-10-16T08:24:00.893Z,33.67
2018-10-16T08:26:31.536Z,32.65
2018-10-16T08:29:02.202Z,32.02
2018-10-16T08:31:33.083Z,32.05
2018-10-16T08:34:04.008Z,30.48
2018-10-16T08:36:34.858Z,30.33
2018-10-16T08:39:16.797Z,29.35
2018-10-16T08:44:07.716Z,29.38
2018-10-16T08:46:55.305Z,29.36
2018-10-16T08:49:42.802Z,28.92
2018-10-16T08:52:13.478Z,27.77
2018-10-16T08:54:44.192Z,27.36
2018-10-16T08:57:14.822Z,26.99
2018-10-16T08:59:45.493Z,27.26
2018-10-16T09:02:16.358Z,26.03
2018-10-16T09:04:47.005Z,26.27
2018-10-16T09:07:17.733Z,25.72
2018-10-16T09:09:48.400Z,25.41
2018-10-16T09:12:19.141Z,24.88
2018-10-16T09:14:49.826Z,24.83
2018-10-16T09:17:20.484Z,24.41
2018-10-16T09:19:51.132Z,24.14
2018-10-16T09:22:21.849Z,23.50
2018-10-16T09:24:52.630Z,23.95
2018-10-16T09:27:23.300Z,23.62
2018-10-16T09:29:54.055Z,23.50
2018-10-16T09:32:24.692Z,23.17
2018-10-16T09:34:55.618Z,23.23
2018-10-16T09:37:26.293Z,23.13
2018-10-16T09:39:56.906Z,22.49
2018-10-16T09:42:27.531Z,23.15
2018-10-16T09:44:58.208Z,22.55
2018-10-16T09:47:28.914Z,22.66
2018-10-16T09:50:06.530Z,22.69
2018-10-16T09:52:36.930Z,22.73
2018-10-16T09:55:11.249Z,22.89
2018-10-16T09:57:42.051Z,23.17
2018-10-16T10:00:18.380Z,23.80
2018-10-16T10:02:49.084Z,23.22
2018-10-16T10:05:19.952Z,23.18
2018-10-16T10:07:50.667Z,24.01
2018-10-16T10:10:21.260Z,23.51
2018-10-16T10:12:51.888Z,23.72
2018-10-16T10:15:22.591Z,24.30
2018-10-16T10:17:53.249Z,23.43
2018-10-16T10:20:23.907Z,23.45
2018-10-16T10:22:54.485Z,23.76
2018-10-16T10:25:25.236Z,23.56
2018-10-16T10:27:55.845Z,23.26
2018-10-16T10:30:26.471Z,23.91
2018-10-16T10:32:57.111Z,23.58
2018-10-16T10:35:27.825Z,24.46
2018-10-16T10:37:58.487Z,23.23
2018-10-16T10:40:29.157Z,23.84
2018-10-16T10:42:59.908Z,23.91
2018-10-16T10:45:30.649Z,23.20
2018-10-16T10:48:01.393Z,23.57
2018-10-16T10:50:32.200Z,23.04
2018-10-16T10:53:02.790Z,22.65
2018-10-16T10:55:33.428Z,22.51
2018-10-16T10:58:04.198Z,22.72
2018-10-16T11:00:34.959Z,22.87
2018-10-16T11:03:05.862Z,22.43
2018-10-16T11:05:36.448Z,22.33
2018-10-16T11:08:07.201Z,22.65
2018-10-16T11:10:37.826Z,22.66
2018-10-16T11:13:08.583Z,22.54
2018-10-16T11:15:39.214Z,22.02
2018-10-16T11:18:09.900Z,21.59
2018-10-16T11:20:40.509Z,21.37
2018-10-16T11:23:11.175Z,21.32
2018-10-16T11:25:41.848Z,20.98
2018-10-16T11:28:12.515Z,20.52
2018-10-16T11:30:43.147Z,20.67
2018-10-16T11:33:13.927Z,20.87
2018-10-16T11:35:54.433Z,20.72
2018-10-16T11:38:25.032Z,20.98
2018-10-16T11:40:55.778Z,21.50
2018-10-16T11:43:26.476Z,21.63
2018-10-16T11:45:57.204Z,21.53
2018-10-16T11:48:27.839Z,21.66
2018-10-16T11:50:58.518Z,20.86
2018-10-16T11:53:29.165Z,20.89
2018-10-16T11:55:59.825Z,19.75
2018-10-16T11:58:30.490Z,20.33
2018-10-16T12:01:01.289Z,19.89
2018-10-16T12:03:31.893Z,19.04
2018-10-16T12:06:02.639Z,19.83
2018-10-16T12:08:33.268Z,21.09
2018-10-16T12:11:04.164Z,20.87
2018-10-16T12:13:34.857Z,21.00
2018-10-16T12:16:05.554Z,20.65
2018-10-16T12:18:46.980Z,20.84
2018-10-16T12:21:19.492Z,21.31
2018-10-16T12:23:50.186Z,22.00
2018-10-16T12:26:21.355Z,22.48
2018-10-16T12:28:52.055Z,22.30
2018-10-16T12:31:22.654Z,22.11
2018-10-16T12:33:53.279Z,21.43
2018-10-16T12:36:23.971Z,21.02
2018-10-16T12:38:54.669Z,20.78
2018-10-16T12:41:25.396Z,19.75
2018-10-16T12:43:56.087Z,20.29
2018-10-16T12:46:26.889Z,20.55
2018-10-16T12:48:57.564Z,20.44
2018-10-16T12:51:28.196Z,20.55
2018-10-16T12:53:58.915Z,20.64
2018-10-16T12:56:29.583Z,20.65
2018-10-16T12:59:00.276Z,21.08
2018-10-16T13:01:30.941Z,20.22
2018-10-16T13:04:01.652Z,21.07
2018-10-16T13:06:32.347Z,21.75
2018-10-16T13:09:03.136Z,21.80
2018-10-16T13:11:33.773Z,22.39
2018-10-16T13:14:04.614Z,21.54
2018-10-16T13:16:35.271Z,20.27
2018-10-16T13:19:06.111Z,21.16
2018-10-16T13:21:37.032Z,20.04
2018-10-16T13:24:07.867Z,20.44
2018-10-16T13:26:38.471Z,20.91
2018-10-16T13:29:09.350Z,21.12
2018-10-16T13:31:39.959Z,21.05
2018-10-16T13:34:10.786Z,20.57
2018-10-16T13:36:41.524Z,19.94
2018-10-16T13:39:12.236Z,19.57
2018-10-16T13:41:43.089Z,19.51
2018-10-16T13:44:13.864Z,20.27
2018-10-16T13:46:44.492Z,20.78
2018-10-16T13:49:15.174Z,21.15
2018-10-16T13:51:45.805Z,20.58
2018-10-16T13:54:16.429Z,20.54
2018-10-16T13:56:47.153Z,20.55
2018-10-16T13:59:17.814Z,20.23
2018-10-16T14:01:48.553Z,19.76
2018-10-16T14:04:19.252Z,19.83
2018-10-16T14:06:49.901Z,19.66
2018-10-16T14:09:20.574Z,19.74
2018-10-16T14:11:51.216Z,19.82
2018-10-16T14:14:21.877Z,20.00
2018-10-16T14:16:52.720Z,20.30
2018-10-16T14:19:23.322Z,20.08
2018-10-16T14:21:54.067Z,19.47
2018-10-16T14:24:24.639Z,20.08
2018-10-16T14:26:55.335Z,21.16
2018-10-16T14:29:26.011Z,21.36
2018-10-16T14:31:56.757Z,20.89
2018-10-16T14:34:27.483Z,21.34
2018-10-16T14:36:58.059Z,21.41
2018-10-16T14:39:28.719Z,22.02
2018-10-16T14:41:59.384Z,22.25
2018-10-16T14:44:30.048Z,22.32
2018-10-16T14:47:00.712Z,22.30
2018-10-16T14:49:31.332Z,22.65
2018-10-16T14:52:01.994Z,22.28
2018-10-16T14:54:32.666Z,22.22
2018-10-16T14:57:03.341Z,23.49
2018-10-16T14:59:34.048Z,23.36
2018-10-16T15:02:04.914Z,24.74
2018-10-16T15:04:35.549Z,25.65
2018-10-16T15:07:06.339Z,25.53
2018-10-16T15:09:37.131Z,26.18
2018-10-16T15:12:07.732Z,27.17
2018-10-16T15:14:38.372Z,27.56
2018-10-16T15:17:08.987Z,27.38
2018-10-16T15:19:39.691Z,28.44
2018-10-16T15:22:10.513Z,28.71
2018-10-16T15:24:41.126Z,28.65
2018-10-16T15:27:11.783Z,28.43
2018-10-16T15:29:42.469Z,28.72
2018-10-16T15:32:13.313Z,28.19
2018-10-16T15:34:43.879Z,28.77
2018-10-16T15:37:14.568Z,28.27
2018-10-16T15:39:45.257Z,28.30
2018-10-16T15:42:15.965Z,28.46
2018-10-16T15:44:46.574Z,29.76
2018-10-16T15:47:17.245Z,29.36
2018-10-16T15:49:47.903Z,29.25
2018-10-16T15:52:18.554Z,29.96
2018-10-16T15:54:49.221Z,30.41
2018-10-16T15:57:19.851Z,31.21
2018-10-16T15:59:50.567Z,31.44
2018-10-16T16:02:21.181Z,31.69
2018-10-16T16:04:51.833Z,32.56
2018-10-16T16:07:22.467Z,33.16
2018-10-16T16:09:53.163Z,33.10
2018-10-16T16:12:23.823Z,33.61
2018-10-16T16:14:54.462Z,34.01
2018-10-16T16:17:25.147Z,34.44
2018-10-16T16:19:55.788Z,33.96
2018-10-16T16:22:26.541Z,34.26
2018-10-16T16:24:57.166Z,35.32
2018-10-16T16:27:27.864Z,34.51
2018-10-16T16:29:58.586Z,35.54
2018-10-16T16:32:29.251Z,35.90
2018-10-16T16:34:59.910Z,36.41
2018-10-16T16:37:30.528Z,36.90
2018-10-16T16:40:01.199Z,37.20
2018-10-16T16:42:31.849Z,37.13
2018-10-16T16:45:02.486Z,37.18
2018-10-16T16:47:36.421Z,38.13
2018-10-16T16:50:09.020Z,38.56
2018-10-16T16:52:40.065Z,38.42
2018-10-16T16:55:12.717Z,38.86
2018-10-16T16:57:43.705Z,38.85
2018-10-16T17:00:15.180Z,39.34
2018-10-16T17:02:46.469Z,39.13
2018-10-16T17:05:17.121Z,39.67
2018-10-16T17:07:47.801Z,39.82
2018-10-16T17:10:18.547Z,39.70
2018-10-16T17:12:49.196Z,39.56
2018-10-16T17:15:19.829Z,40.57
2018-10-16T17:17:50.545Z,40.51
2018-10-16T17:20:21.153Z,40.28
2018-10-16T17:22:51.788Z,40.85
2018-10-16T17:25:22.607Z,40.58
2018-10-16T17:27:53.077Z,40.28
2018-10-16T17:30:23.712Z,40.39
2018-10-16T17:32:54.355Z,40.40
2018-10-16T17:35:25.103Z,41.43
2018-10-16T17:37:55.744Z,40.91
2018-10-16T17:40:26.415Z,41.89
2018-10-16T17:42:57.037Z,41.18
2018-10-16T17:45:27.707Z,41.83
2018-10-16T17:47:58.519Z,41.93
2018-10-16T17:50:28.973Z,41.91
2018-10-16T17:52:59.645Z,42.11
2018-10-16T17:57:59.700Z,42.60
2018-10-16T18:00:30.275Z,43.10
2018-10-16T18:03:00.923Z,43.17
2018-10-16T18:05:31.543Z,43.66
2018-10-16T18:08:02.256Z,43.93
2018-10-16T18:10:32.915Z,44.54
2018-10-16T18:13:03.675Z,44.13
2018-10-16T18:15:34.469Z,44.68
2018-10-16T18:18:05.439Z,44.71
2018-10-16T18:20:36.080Z,45.29
2018-10-16T18:23:06.830Z,45.19
2018-10-16T18:25:37.496Z,44.98
2018-10-16T18:28:08.133Z,45.15
2018-10-16T18:30:38.794Z,45.80
2018-10-16T18:33:09.499Z,45.59
2018-10-16T18:35:40.073Z,45.65
2018-10-16T18:38:10.751Z,45.79
2018-10-16T18:40:41.460Z,45.69
2018-10-16T18:43:12.093Z,45.90
2018-10-16T18:45:42.736Z,46.20
2018-10-16T18:48:13.428Z,46.32
2018-10-16T18:50:44.099Z,46.78
2018-10-16T18:53:14.835Z,46.21
2018-10-16T18:55:45.462Z,46.05
2018-10-16T18:58:16.163Z,46.94
2018-10-16T19:00:49.419Z,45.98
2018-10-16T19:03:20.180Z,46.70
2018-10-16T19:05:50.847Z,46.63
2018-10-16T19:08:21.590Z,47.26
2018-10-16T19:10:52.223Z,47.43
2018-10-16T19:13:22.886Z,47.82
2018-10-16T19:15:53.588Z,48.67
2018-10-16T19:18:24.248Z,48.91
2018-10-16T19:20:54.991Z,48.60
2018-10-16T19:23:25.664Z,48.51
2018-10-16T19:25:56.281Z,49.33
2018-10-16T19:28:26.987Z,48.80
2018-10-16T19:30:57.793Z,49.00
2018-10-16T19:33:32.282Z,49.02
2018-10-16T19:36:02.908Z,48.94
2018-10-16T19:38:33.615Z,49.54
2018-10-16T19:41:04.293Z,49.66
2018-10-16T19:43:34.942Z,50.39
2018-10-16T19:46:06.028Z,50.45
2018-10-16T19:48:37.120Z,50.23
2018-10-16T19:51:08.002Z,51.05
2018-10-16T19:53:38.673Z,51.21
2018-10-16T19:56:09.352Z,50.64
2018-10-16T19:58:40.005Z,51.09
2018-10-16T20:01:10.701Z,50.71
2018-10-16T20:03:41.336Z,50.76
2018-10-16T20:06:11.961Z,51.33
2018-10-16T20:08:42.697Z,51.71
2018-10-16T20:11:13.310Z,51.49
2018-10-16T20:13:43.958Z,51.74
2018-10-16T20:16:14.638Z,52.10
2018-10-16T20:18:45.385Z,51.82
2018-10-16T20:21:16.229Z,52.14
2018-10-16T20:23:46.882Z,52.03
2018-10-16T20:26:17.497Z,51.35
2018-10-16T20:28:48.125Z,51.97
2018-10-16T20:31:18.774Z,51.79
2018-10-16T20:33:49.466Z,51.93
2018-10-16T20:36:20.191Z,52.73
2018-10-16T20:38:50.847Z,52.80
2018-10-16T20:41:21.471Z,51.94
2018-10-16T20:43:52.206Z,52.10
2018-10-16T20:46:22.815Z,51.88
2018-10-16T20:48:53.599Z,52.27
2018-10-16T20:51:24.307Z,52.50
2018-10-16T20:53:55.101Z,53.00
2018-10-16T20:56:25.860Z,52.17
2018-10-16T20:58:56.568Z,52.48
2018-10-16T21:01:28.097Z,52.44
2018-10-16T21:03:58.709Z,52.43
2018-10-16T21:06:29.527Z,52.24
2018-10-16T21:09:00.148Z,52.54
2018-10-16T21:11:30.861Z,52.48
2018-10-16T21:14:01.571Z,52.63
2018-10-16T21:16:32.243Z,52.52
2018-10-16T21:19:03.213Z,52.13
2018-10-16T21:21:33.825Z,52.48
2018-10-16T21:24:04.567Z,52.27
2018-10-16T21:26:35.287Z,52.52
2018-10-16T21:29:06.307Z,52.69
2018-10-16T21:31:36.869Z,52.18
2018-10-16T21:34:07.639Z,52.62
2018-10-16T21:36:38.271Z,52.77
2018-10-16T21:39:08.910Z,52.95
2018-10-16T21:41:39.578Z,52.50
2018-10-16T21:44:10.206Z,52.87
2018-10-16T21:46:40.864Z,53.75
2018-10-16T21:49:11.553Z,53.41
2018-10-16T21:51:42.435Z,53.39
2018-10-16T21:54:13.026Z,53.98
2018-10-16T21:56:43.660Z,54.49
2018-10-16T21:59:14.388Z,54.49
2018-10-16T22:01:50.166Z,54.15
2018-10-16T22:04:20.783Z,54.49
2018-10-16T22:06:51.478Z,54.47
2018-10-16T22:09:22.150Z,54.48
2018-10-16T22:11:52.825Z,54.77
2018-10-16T22:14:23.416Z,54.95
2018-10-16T22:16:54.074Z,54.94
2018-10-16T22:19:24.783Z,55.22
2018-10-16T22:21:55.437Z,55.76
2018-10-16T22:24:26.091Z,55.47
2018-10-16T22:26:56.708Z,55.57
2018-10-16T22:29:27.379Z,56.02
2018-10-16T22:31:58.000Z,55.35
2018-10-16T22:34:28.712Z,56.01
2018-10-16T22:36:59.401Z,56.14
2018-10-16T22:39:30.012Z,56.60
2018-10-16T22:42:00.591Z,56.31
2018-10-16T22:44:31.301Z,56.21
2018-10-16T22:47:02.000Z,56.28
2018-10-16T22:49:32.607Z,56.29
2018-10-16T22:52:03.247Z,56.26
2018-10-16T22:54:33.980Z,56.34
2018-10-16T22:57:04.678Z,56.25
2018-10-16T22:59:35.384Z,56.24
2018-10-16T23:02:06.581Z,55.99
2018-10-16T23:04:37.273Z,56.41
2018-10-16T23:07:07.970Z,56.79
2018-10-16T23:09:38.556Z,57.01
2018-10-16T23:12:09.411Z,56.07
2018-10-16T23:14:40.074Z,56.88
2018-10-16T23:17:11.126Z,56.39
2018-10-16T23:19:41.798Z,56.79
2018-10-16T23:22:12.473Z,56.95
2018-10-16T23:24:43.124Z,56.48
2018-10-16T23:27:13.755Z,56.78
2018-10-16T23:29:44.363Z,56.87
2018-10-16T23:32:15.103Z,56.83
2018-10-16T23:34:45.730Z,56.68
2018-10-16T23:37:16.362Z,56.64
2018-10-16T23:39:46.934Z,56.80
2018-10-16T23:42:17.556Z,56.77
2018-10-16T23:44:48.183Z,57.03
2018-10-16T23:47:18.894Z,57.13
2018-10-16T23:49:49.571Z,56.97
2018-10-16T23:52:20.235Z,57.30
2018-10-16T23:54:50.857Z,57.63
2018-10-16T23:57:21.518Z,57.63
2018-10-16T23:59:52.160Z,58.34
